createdAt,value
2019-02-06T00:00:58.498Z,62.03
2019-02-06T00:03:27.266Z,64.22
2019-02-06T00:05:55.856Z,59.20
2019-02-06T00:08:24.477Z,62.00
2019-02-06T00:10:54.624Z,65.60
2019-02-06T00:13:23.108Z,71.40
2019-02-06T00:15:51.939Z,65.75
2019-02-06T00:18:20.492Z,64.42
2019-02-06T00:20:48.996Z,59.25
2019-02-06T00:23:17.430Z,69.80
2019-02-06T00:25:45.919Z,69.03
2019-02-06T00:28:14.420Z,63.92
2019-02-06T00:30:43.064Z,65.40
2019-02-06T00:33:11.506Z,63.95
2019-02-06T00:35:39.995Z,63.55
2019-02-06T00:38:08.511Z,64.62
2019-02-06T00:40:37.931Z,69.10
2019-02-06T00:43:06.412Z,68.20
2019-02-06T00:45:34.844Z,57.98
2019-02-06T00:48:03.541Z,57.25
2019-02-06T00:50:31.991Z,78.57
2019-02-06T00:53:00.401Z,67.70
2019-02-06T00:55:28.880Z,66.72
2019-02-06T00:57:57.353Z,56.13
2019-02-06T01:00:25.803Z,64.25
2019-02-06T01:02:54.216Z,56.60
2019-02-06T01:05:22.902Z,67.25
2019-02-06T01:07:51.397Z,69.80
2019-02-06T01:10:22.649Z,61.23
2019-02-06T01:12:52.055Z,60.05
2019-02-06T01:15:20.492Z,60.65
2019-02-06T01:17:48.980Z,60.08
2019-02-06T01:20:18.460Z,65.20
2019-02-06T01:22:46.883Z,60.58
2019-02-06T01:25:18.209Z,63.30
2019-02-06T01:27:46.692Z,59.27
2019-02-06T01:30:22.191Z,65.30
2019-02-06T01:32:50.740Z,58.73
2019-02-06T01:35:19.473Z,59.75
2019-02-06T01:37:47.898Z,62.00
2019-02-06T01:40:20.564Z,72.08
2019-02-06T01:42:49.080Z,66.95
2019-02-06T01:45:21.422Z,55.92
2019-02-06T01:47:49.864Z,66.37
2019-02-06T01:50:19.197Z,63.25
2019-02-06T01:52:47.779Z,60.50
2019-02-06T01:55:16.470Z,65.87
2019-02-06T01:57:45.001Z,70.60
2019-02-06T02:00:16.560Z,68.20
2019-02-06T02:02:45.988Z,62.20
2019-02-06T02:05:17.140Z,62.10
2019-02-06T02:07:45.579Z,63.05
2019-02-06T02:10:14.832Z,65.80
2019-02-06T04:42:24.581Z,45.03
2019-02-06T04:44:52.996Z,53.23
2019-02-06T04:47:21.819Z,50.43
2019-02-06T04:49:50.243Z,52.80
2019-02-06T04:52:18.680Z,57.35
2019-02-06T04:54:47.106Z,56.33
2019-02-06T04:57:15.532Z,56.02
2019-02-06T04:59:43.959Z,60.50
2019-02-06T05:02:12.613Z,60.67
2019-02-06T05:04:41.397Z,53.25
2019-02-06T05:07:18.699Z,53.25
2019-02-06T05:09:40.042Z,54.77
2019-02-06T05:12:09.630Z,56.08
2019-02-06T05:14:38.293Z,54.83
2019-02-06T05:17:06.741Z,56.08
2019-02-06T05:19:35.163Z,52.45
2019-02-06T05:22:03.588Z,66.22
2019-02-06T05:24:32.001Z,93.17
2019-02-06T05:27:00.464Z,103.92
2019-02-06T05:29:28.868Z,128.95
2019-02-06T05:31:57.317Z,170.35
2019-02-06T05:34:25.738Z,146.10
2019-02-06T05:36:54.262Z,197.50
2019-02-06T05:39:22.668Z,120.35
2019-02-06T05:41:51.106Z,100.40
2019-02-06T05:44:19.526Z,84.25
2019-02-06T05:46:47.948Z,73.75
2019-02-06T05:49:16.363Z,63.70
2019-02-06T05:51:44.808Z,69.77
2019-02-06T05:54:13.511Z,67.05
2019-02-06T05:56:41.932Z,56.18
2019-02-06T05:59:10.344Z,120.72
2019-02-06T06:01:38.792Z,75.75
2019-02-06T06:04:07.221Z,81.15
2019-02-06T06:06:35.674Z,65.97
2019-02-06T06:09:07.198Z,67.30
2019-02-06T06:11:36.008Z,63.13
2019-02-06T06:14:04.723Z,67.03
2019-02-06T06:16:33.164Z,65.67
2019-02-06T06:19:01.573Z,47.15
2019-02-06T06:21:30.006Z,64.97
2019-02-06T06:23:58.429Z,55.85
2019-02-06T06:26:26.934Z,52.23
2019-02-06T06:28:55.721Z,56.70
2019-02-06T06:31:24.155Z,57.83
2019-02-06T06:33:52.560Z,75.47
2019-02-06T06:36:20.973Z,61.55
2019-02-06T06:38:49.400Z,56.28
2019-02-06T06:41:17.812Z,70.30
2019-02-06T06:43:46.242Z,60.80
2019-02-06T06:46:14.933Z,54.93
2019-02-06T06:48:43.375Z,71.40
2019-02-06T06:51:13.121Z,62.35
2019-02-06T06:53:41.563Z,70.10
2019-02-06T06:56:10.069Z,72.67
2019-02-06T06:58:38.505Z,77.00
2019-02-06T07:01:07.002Z,63.45
2019-02-06T07:03:35.425Z,60.45
2019-02-06T07:06:03.837Z,60.65
2019-02-06T07:08:32.286Z,62.20
2019-02-06T07:11:00.722Z,57.70
2019-02-06T07:13:29.166Z,57.60
2019-02-06T07:16:00.223Z,64.37
2019-02-06T07:18:27.859Z,64.70
2019-02-06T07:20:56.241Z,61.58
2019-02-06T07:23:24.697Z,60.12
2019-02-06T07:25:53.130Z,60.48
2019-02-06T07:28:21.593Z,62.53
2019-02-06T07:30:50.097Z,62.15
2019-02-06T07:33:18.703Z,56.37
2019-02-06T07:35:47.106Z,66.95
2019-02-06T07:38:24.017Z,64.97
2019-02-06T07:40:45.689Z,54.63
2019-02-06T07:43:14.130Z,63.92
2019-02-06T07:45:42.552Z,60.55
2019-02-06T07:48:10.981Z,66.00
2019-02-06T07:50:39.832Z,57.70
2019-02-06T07:53:09.297Z,60.52
2019-02-06T07:55:37.706Z,61.20
2019-02-06T07:58:06.215Z,60.52
2019-02-06T08:00:34.629Z,50.25
2019-02-06T08:03:03.057Z,59.20
2019-02-06T08:05:31.545Z,55.43
2019-02-06T08:08:00.062Z,59.15
2019-02-06T08:10:31.188Z,61.40
2019-02-06T08:13:00.069Z,52.93
2019-02-06T08:15:28.663Z,67.50
2019-02-06T08:17:57.193Z,66.65
2019-02-06T08:20:25.791Z,62.95
2019-02-06T08:22:54.837Z,53.68
2019-02-06T08:25:25.196Z,55.50
2019-02-06T08:27:53.872Z,59.75
2019-02-06T08:30:37.152Z,52.05
2019-02-06T08:33:05.914Z,61.68
2019-02-06T08:35:34.712Z,64.77
2019-02-06T08:38:03.218Z,67.47
2019-02-06T08:40:33.688Z,56.45
2019-02-06T08:43:02.505Z,61.18
2019-02-06T08:45:31.031Z,51.05
2019-02-06T08:47:59.448Z,47.67
2019-02-06T08:50:29.292Z,63.78
2019-02-06T08:52:57.715Z,49.55
2019-02-06T08:55:33.253Z,50.33
2019-02-06T08:58:02.765Z,50.40
2019-02-06T09:00:39.252Z,53.50
2019-02-06T09:03:09.392Z,53.03
2019-02-06T09:05:37.879Z,48.33
2019-02-06T09:08:06.525Z,51.90
2019-02-06T09:10:36.065Z,54.80
2019-02-06T09:13:06.080Z,53.93
2019-02-06T09:15:34.538Z,57.33
2019-02-06T09:18:03.009Z,57.20
2019-02-06T09:20:31.800Z,59.67
2019-02-06T09:23:00.269Z,50.50
2019-02-06T09:25:30.032Z,42.90
2019-02-06T09:27:58.592Z,50.67
2019-02-06T09:30:29.166Z,48.07
2019-02-06T09:32:57.943Z,45.43
2019-02-06T09:35:26.749Z,49.23
2019-02-06T09:37:55.456Z,47.53
2019-02-06T09:40:26.116Z,43.00
2019-02-06T09:42:54.539Z,43.60
2019-02-06T09:45:23.448Z,46.13
2019-02-06T09:47:51.881Z,39.63
2019-02-06T09:50:29.499Z,38.47
2019-02-06T09:52:57.956Z,38.03
2019-02-06T09:55:26.510Z,35.93
2019-02-06T09:57:55.055Z,38.67
2019-02-06T10:00:26.289Z,38.30
2019-02-06T10:02:54.790Z,39.93
2019-02-06T10:05:23.663Z,38.70
2019-02-06T10:07:52.068Z,40.10
2019-02-06T10:10:23.208Z,38.33
2019-02-06T10:12:51.616Z,41.63
2019-02-06T10:15:22.382Z,35.83
2019-02-06T10:17:50.865Z,33.70
2019-02-06T10:20:26.973Z,34.73
2019-02-06T10:22:55.413Z,33.37
2019-02-06T10:25:23.901Z,38.60
2019-02-06T10:27:52.321Z,37.77
2019-02-06T10:30:26.742Z,39.60
2019-02-06T10:32:55.642Z,40.80
2019-02-06T10:35:24.147Z,35.03
2019-02-06T10:37:52.583Z,44.13
2019-02-06T10:40:21.078Z,39.87
2019-02-06T10:42:49.633Z,38.93
2019-02-06T10:45:21.114Z,38.93
2019-02-06T10:47:50.451Z,37.23
2019-02-06T10:50:30.993Z,36.43
2019-02-06T10:52:59.487Z,35.13
2019-02-06T10:55:28.667Z,33.97
2019-02-06T10:57:57.105Z,37.17
2019-02-06T11:00:37.585Z,35.93
2019-02-06T11:03:06.133Z,36.20
2019-02-06T11:05:34.634Z,37.53
2019-02-06T11:08:03.125Z,41.20
2019-02-06T11:10:31.540Z,38.30
2019-02-06T11:13:01.754Z,37.63
2019-02-06T11:15:30.756Z,41.67
2019-02-06T11:17:59.236Z,36.93
2019-02-06T11:20:30.735Z,52.00
2019-02-06T11:22:59.298Z,41.47
2019-02-06T11:25:27.906Z,49.80
2019-02-06T11:27:56.395Z,42.47
2019-02-06T11:30:27.631Z,44.30
2019-02-06T11:32:56.040Z,42.53
2019-02-06T11:35:24.464Z,42.83
2019-02-06T11:37:53.009Z,36.13
2019-02-06T11:40:23.391Z,41.33
2019-02-06T11:42:52.150Z,34.90
2019-02-06T11:45:29.063Z,32.83
2019-02-06T11:47:57.733Z,30.97
2019-02-06T11:50:30.869Z,34.40
2019-02-06T11:52:59.299Z,35.43
2019-02-06T11:55:30.422Z,37.10
2019-02-06T11:57:58.893Z,40.17
2019-02-06T12:00:44.904Z,30.90
2019-02-06T12:03:13.559Z,43.47
2019-02-06T12:05:42.045Z,43.97
2019-02-06T12:08:12.632Z,52.17
2019-02-06T12:10:40.786Z,35.87
2019-02-06T12:13:09.604Z,40.37
2019-02-06T12:15:38.126Z,36.57
2019-02-06T12:18:07.176Z,44.53
2019-02-06T12:20:36.143Z,37.57
2019-02-06T12:23:05.203Z,33.33
2019-02-06T12:25:34.528Z,35.10
2019-02-06T12:28:05.210Z,35.50
2019-02-06T12:30:36.558Z,33.17
2019-02-06T12:33:05.596Z,37.40
2019-02-06T12:35:34.114Z,31.47
2019-02-06T12:38:02.715Z,36.00
2019-02-06T12:40:31.340Z,37.27
2019-02-06T12:42:59.827Z,37.47
2019-02-06T12:45:28.676Z,42.87
2019-02-06T12:47:57.453Z,38.97
2019-02-06T12:50:26.437Z,32.10
2019-02-06T12:52:57.352Z,37.73
2019-02-06T12:55:42.238Z,38.03
2019-02-06T12:58:10.704Z,40.37
2019-02-06T13:00:44.094Z,34.03
2019-02-06T13:03:12.496Z,37.57
2019-02-06T13:05:41.052Z,35.23
2019-02-06T13:08:09.523Z,35.77
2019-02-06T13:10:39.186Z,38.73
2019-02-06T13:13:07.739Z,34.47
2019-02-06T13:15:36.529Z,30.63
2019-02-06T13:18:05.647Z,38.83
2019-02-06T13:20:35.724Z,32.00
2019-02-06T13:23:05.265Z,32.70
2019-02-06T13:25:33.749Z,35.90
2019-02-06T13:28:02.229Z,38.83
2019-02-06T13:30:38.183Z,36.03
2019-02-06T13:33:08.056Z,33.50
2019-02-06T13:35:38.423Z,36.27
2019-02-06T13:38:06.910Z,39.10
2019-02-06T13:40:45.251Z,37.13
2019-02-06T13:43:05.761Z,35.43
2019-02-06T13:45:37.429Z,33.60
2019-02-06T13:48:06.387Z,31.50
2019-02-06T13:50:34.892Z,34.70
2019-02-06T13:53:03.381Z,31.90
2019-02-06T13:55:31.810Z,30.77
2019-02-06T13:58:00.212Z,36.17
2019-02-06T14:00:37.436Z,30.60
2019-02-06T14:03:06.895Z,31.23
2019-02-06T14:05:35.674Z,31.77
2019-02-06T14:08:07.135Z,28.30
2019-02-06T14:10:35.911Z,32.73
2019-02-06T14:13:04.696Z,33.77
2019-02-06T14:15:41.111Z,30.13
2019-02-06T14:18:10.456Z,27.27
2019-02-06T14:20:40.433Z,28.63
2019-02-06T14:23:14.173Z,32.77
2019-02-06T14:26:08.829Z,32.93
2019-02-06T14:28:55.570Z,31.93
2019-02-06T14:31:33.018Z,33.87
2019-02-06T14:34:10.297Z,31.87
2019-02-06T14:36:59.652Z,32.57
2019-02-06T14:39:54.304Z,28.33
2019-02-06T14:42:28.899Z,34.13
2019-02-06T14:45:03.642Z,29.77
2019-02-06T14:47:35.743Z,34.50
2019-02-06T14:50:36.359Z,24.13
2019-02-06T14:53:17.154Z,28.20
2019-02-06T14:56:00.407Z,29.63
2019-02-06T14:58:48.260Z,30.93
2019-02-06T15:01:19.772Z,33.73
2019-02-06T15:03:51.274Z,25.93
2019-02-06T15:06:42.129Z,32.60
2019-02-06T15:09:35.130Z,32.57
2019-02-06T15:12:15.143Z,34.00
2019-02-06T15:14:49.468Z,30.40
2019-02-06T15:17:36.220Z,33.27
2019-02-06T15:20:24.254Z,30.70
2019-02-06T15:23:07.963Z,34.13
2019-02-06T15:25:51.436Z,36.33
2019-02-06T15:28:38.069Z,29.83
2019-02-06T15:31:12.037Z,35.23
2019-02-06T15:34:24.023Z,33.70
2019-02-06T15:37:16.429Z,36.10
2019-02-06T15:40:12.992Z,31.63
2019-02-06T15:42:44.641Z,39.93
2019-02-06T15:45:28.028Z,38.90
2019-02-06T15:48:17.568Z,34.80
2019-02-06T15:50:56.868Z,31.10
2019-02-06T15:53:41.056Z,35.87
2019-02-06T15:56:24.497Z,36.13
2019-02-06T15:58:58.653Z,40.57
2019-02-06T16:01:36.058Z,36.90
2019-02-06T16:04:20.547Z,41.33
2019-02-06T16:06:59.421Z,39.17
2019-02-06T16:09:59.710Z,42.63
2019-02-06T16:12:58.498Z,40.87
2019-02-06T16:15:32.707Z,37.70
2019-02-06T16:18:04.683Z,41.80
2019-02-06T16:20:38.959Z,41.50
2019-02-06T16:23:22.216Z,41.10
2019-02-06T16:25:56.638Z,49.33
2019-02-06T16:29:03.164Z,44.57
2019-02-06T16:31:40.240Z,41.87
2019-02-06T16:34:40.251Z,40.47
2019-02-06T16:37:29.395Z,50.63
2019-02-06T16:40:17.456Z,54.33
2019-02-06T16:42:57.554Z,37.70
2019-02-06T16:45:34.585Z,39.03
2019-02-06T16:48:17.340Z,41.73
2019-02-06T16:50:51.925Z,33.57
2019-02-06T16:53:44.570Z,42.43
2019-02-06T16:56:34.406Z,45.13
2019-02-06T16:59:25.698Z,41.07
2019-02-06T17:02:14.720Z,41.70
2019-02-06T17:04:48.857Z,40.40
2019-02-06T17:07:23.100Z,35.20
2019-02-06T17:10:21.984Z,41.97
2019-02-06T17:12:53.498Z,38.00
2019-02-06T17:15:27.828Z,39.13
2019-02-06T17:18:02.097Z,30.47
2019-02-06T17:20:48.816Z,30.13
2019-02-06T17:23:26.405Z,36.03
2019-02-06T17:26:00.709Z,36.57
2019-02-06T17:28:34.897Z,35.53
2019-02-06T17:31:09.308Z,39.33
2019-02-06T17:33:58.993Z,35.50
2019-02-06T17:36:39.163Z,29.10
2019-02-06T17:39:24.169Z,35.87
2019-02-06T17:41:52.143Z,42.07
2019-02-06T17:44:44.581Z,37.23
2019-02-06T17:47:35.938Z,43.00
2019-02-06T17:50:31.824Z,36.50
2019-02-06T17:53:30.783Z,47.50
2019-02-06T17:55:59.281Z,34.60
2019-02-06T17:58:30.010Z,40.90
2019-02-06T18:01:03.446Z,36.23
2019-02-06T18:03:35.464Z,39.63
2019-02-06T18:06:04.260Z,40.60
2019-02-06T18:08:32.688Z,42.30
2019-02-06T18:11:01.193Z,42.10
2019-02-06T18:13:29.610Z,50.60
2019-02-06T18:15:58.108Z,52.60
2019-02-06T18:18:26.805Z,45.07
2019-02-06T18:20:55.300Z,48.63
2019-02-06T18:23:23.781Z,49.57
2019-02-06T18:25:54.325Z,52.07
2019-02-06T18:28:22.833Z,54.27
2019-02-06T18:30:51.460Z,57.73
2019-02-06T18:33:19.901Z,56.67
2019-02-06T18:35:48.910Z,53.23
2019-02-06T18:38:17.384Z,69.97
2019-02-06T18:40:47.101Z,67.13
2019-02-06T18:43:17.130Z,71.90
2019-02-06T18:45:45.759Z,51.73
2019-02-06T18:48:14.385Z,58.63
2019-02-06T18:50:42.886Z,58.07
2019-02-06T18:53:11.752Z,49.07
2019-02-06T18:55:40.188Z,49.53
2019-02-06T18:58:10.570Z,47.50
2019-02-06T19:00:41.304Z,54.60
2019-02-06T19:03:18.886Z,52.10
2019-02-06T19:05:47.597Z,50.97
2019-02-06T19:08:16.355Z,55.20
2019-02-06T19:10:44.957Z,57.53
2019-02-06T19:13:13.361Z,48.30
2019-02-06T19:15:42.079Z,41.40
2019-02-06T19:18:11.028Z,43.33
2019-02-06T19:20:39.479Z,45.90
2019-02-06T19:23:08.043Z,51.57
2019-02-06T19:25:36.614Z,76.23
2019-02-06T19:28:05.111Z,80.70
2019-02-06T19:30:36.866Z,58.03
2019-02-06T19:33:05.650Z,45.37
2019-02-06T19:35:34.171Z,63.07
2019-02-06T19:38:02.588Z,56.53
2019-02-06T19:40:31.009Z,67.57
2019-02-06T19:43:02.475Z,59.70
2019-02-06T19:45:30.485Z,63.60
2019-02-06T19:47:59.387Z,57.23
2019-02-06T19:50:33.616Z,51.90
2019-02-06T19:53:02.125Z,44.23
2019-02-06T19:55:30.655Z,40.00
2019-02-06T19:57:59.134Z,41.83
2019-02-06T20:00:34.966Z,48.97
2019-02-06T20:03:04.906Z,59.20
2019-02-06T20:05:33.485Z,47.40
2019-02-06T20:08:01.973Z,58.40
2019-02-06T20:10:45.181Z,45.67
2019-02-06T20:13:14.641Z,59.57
2019-02-06T20:15:43.190Z,47.50
2019-02-06T20:18:12.118Z,53.90
2019-02-06T20:20:40.822Z,47.10
2019-02-06T20:23:09.335Z,37.03
2019-02-06T20:25:37.914Z,41.30
2019-02-06T20:28:06.507Z,28.70
2019-02-06T20:30:34.999Z,35.90
2019-02-06T20:33:03.505Z,41.37
2019-02-06T20:35:32.070Z,46.80
2019-02-06T20:38:00.501Z,43.77
2019-02-06T20:40:34.211Z,40.17
2019-02-06T20:43:02.817Z,38.97
2019-02-06T20:45:31.675Z,32.40
2019-02-06T20:48:00.263Z,35.73
2019-02-06T20:50:33.651Z,40.70
2019-02-06T20:53:02.464Z,35.00
2019-02-06T20:55:30.956Z,41.33
2019-02-06T20:57:59.400Z,44.30
2019-02-06T21:00:39.979Z,37.30
2019-02-06T21:03:08.499Z,41.77
2019-02-06T21:05:37.671Z,33.10
2019-02-06T21:08:07.444Z,37.60
2019-02-06T21:10:36.625Z,38.20
2019-02-06T21:13:06.138Z,35.30
2019-02-06T21:15:34.795Z,33.40
2019-02-06T21:18:03.567Z,35.27
2019-02-06T21:20:32.158Z,33.40
2019-02-06T21:23:01.061Z,36.00
2019-02-06T21:25:29.484Z,35.50
2019-02-06T21:28:12.548Z,39.48
2019-02-06T21:30:43.165Z,40.83
2019-02-06T21:33:11.601Z,37.17
2019-02-06T21:35:40.419Z,32.70
2019-02-06T21:38:08.947Z,38.10
2019-02-06T21:40:38.022Z,42.13
2019-02-06T21:43:07.317Z,29.30
2019-02-06T21:45:36.071Z,28.67
2019-02-06T21:48:05.514Z,35.40
2019-02-06T21:50:34.281Z,37.65
2019-02-06T21:53:02.708Z,39.13
2019-02-06T21:55:31.128Z,32.25
2019-02-06T21:57:59.771Z,34.90
2019-02-06T22:00:33.800Z,41.10
2019-02-06T22:03:02.305Z,41.77
2019-02-06T22:05:31.113Z,36.00
2019-02-06T22:07:59.685Z,40.60
2019-02-06T22:10:28.122Z,37.13
2019-02-06T22:12:56.564Z,35.25
2019-02-06T22:15:27.356Z,32.05
2019-02-06T22:17:55.863Z,34.63
2019-02-06T22:20:24.743Z,36.27
2019-02-06T22:22:53.180Z,39.90
2019-02-06T22:25:21.669Z,40.23
2019-02-06T22:27:51.811Z,43.08
2019-02-06T22:30:23.306Z,40.60
2019-02-06T22:32:52.152Z,38.08
2019-02-06T22:35:21.029Z,44.42
2019-02-06T22:37:49.494Z,47.93
2019-02-06T22:40:27.142Z,39.95
2019-02-06T22:42:55.598Z,38.30
2019-02-06T22:45:25.862Z,35.55
2019-02-06T22:47:54.370Z,35.50
2019-02-06T22:50:28.345Z,36.30
2019-02-06T22:52:57.122Z,43.85
2019-02-06T22:55:25.771Z,37.85
2019-02-06T22:57:54.311Z,40.45
2019-02-06T23:00:33.051Z,44.35
2019-02-06T23:03:01.505Z,40.73
2019-02-06T23:05:29.995Z,44.25
2019-02-06T23:07:58.512Z,37.73
2019-02-06T23:10:27.087Z,41.55
2019-02-06T23:12:55.599Z,40.43
2019-02-06T23:15:24.012Z,47.90
2019-02-06T23:17:53.084Z,44.40
2019-02-06T23:20:21.514Z,44.13
2019-02-06T23:22:49.946Z,43.15
2019-02-06T23:25:18.364Z,45.50
2019-02-06T23:27:46.847Z,44.55
2019-02-06T23:30:16.145Z,35.35
2019-02-06T23:32:44.908Z,43.92
2019-02-06T23:35:13.423Z,43.83
2019-02-06T23:37:41.871Z,42.00
2019-02-06T23:40:15.699Z,39.85
2019-02-06T23:42:44.219Z,40.35
2019-02-06T23:45:12.911Z,38.63
2019-02-06T23:47:41.879Z,46.13
2019-02-06T23:50:13.025Z,46.65
2019-02-06T23:52:41.510Z,42.65
2019-02-06T23:55:10.453Z,43.85
2019-02-06T23:57:38.874Z,41.63
